SYK weather

Stykkishólmur Airport
Stykkishólmur, Western Region, Iceland

Public forecast

Using degrees Celsius for public forecast. Weather courtesy of forecast.io.

METAR (pilot weather report)

Report is more than 2 hours old.

Closest report is Bildudalur Airport, 39.8 nm (73.6 km) NNW. Retrieved 2019/04/18 14:00 UTC (4 hours ago):

BIBD 181400Z 20019KT 9999 VCSH SCT015 BKN025 07/04 Q1005

TAF (pilot weather forecast)

Closest forecast is Reykjavik Airport, 59.9 nm (110.9 km) SSE. Retrieved 2019/04/18 15:00 UTC (3 hours ago):

TAF BIRK 181355Z 1815/1915 14015KT 9999 BKN020 OVC025 TX09/1912Z TN06/1818Z BECMG 1816/1818 RA TEMPO 1817/1823 14015G25KT 5000 RADZ BR BKN015 OVC020 BECMG 1904/1906 -RA BKN015 OVC030 BECMG 1908/1910 14022G32KT RA